Time,TemperatureF,DewpointF,PressureIn,WindDirection,WindDirectionDegrees,WindSpeedMPH,WindSpeedGustMPH,Humidity,HourlyPrecipIn,Conditions,Clouds,dailyrainin,SolarRadiationWatts/m^2,SoftwareType,DateUTC
2013-11-22 00:00:00,41.0,41.0,-100.00,West,280,6.0,9.0,99,0.00,,,0.34,0.000000,,2013-11-22 08:00:00,
2013-11-22 00:22:00,41.0,41.0,-100.00,West,280,6.0,9.0,99,0.00,,,0.34,0.000000,,2013-11-22 08:22:00,
2013-11-22 00:32:00,41.0,41.0,-100.00,West,280,6.0,9.0,99,0.00,,,0.34,0.000000,,2013-11-22 08:32:00,
2013-11-22 00:42:00,41.0,41.0,-100.00,West,280,6.0,9.0,99,0.00,,,0.34,0.000000,,2013-11-22 08:42:00,
2013-11-22 00:52:00,41.0,41.0,-100.00,West,280,6.0,9.0,99,0.00,,,0.34,0.000000,,2013-11-22 08:52:00,
2013-11-22 01:00:00,41.0,40.0,-100.00,WNW,288,5.0,10.0,98,0.00,,,0.32,0.000000,,2013-11-22 09:00:00,
2013-11-22 01:22:00,41.0,40.0,-100.00,WNW,288,5.0,10.0,98,0.00,,,0.32,0.000000,,2013-11-22 09:22:00,
2013-11-22 01:34:00,41.0,40.0,-100.00,WNW,288,5.0,10.0,98,0.00,,,0.32,0.000000,,2013-11-22 09:34:00,
2013-11-22 01:43:00,41.0,40.0,-100.00,WNW,288,5.0,10.0,98,0.00,,,0.32,0.000000,,2013-11-22 09:43:00,
2013-11-22 01:53:00,41.0,40.0,-100.00,WNW,288,5.0,10.0,98,0.00,,,0.32,0.000000,,2013-11-22 09:53:00,
2013-11-22 02:00:00,41.0,40.0,-100.00,WNW,291,6.0,9.0,98,0.00,,,0.31,0.000000,,2013-11-22 10:00:00,
2013-11-22 02:43:00,41.0,40.0,-100.00,WNW,291,6.0,9.0,98,0.00,,,0.31,0.000000,,2013-11-22 10:43:00,
2013-11-22 02:52:00,41.0,40.0,-100.00,WNW,291,6.0,9.0,98,0.00,,,0.31,0.000000,,2013-11-22 10:52:00,
2013-11-22 04:00:00,41.0,38.0,-100.00,WNW,287,5.0,5.0,88,-99.99,,,0.31,0.000000,,2013-11-22 12:00:00,
2013-11-22 04:42:00,41.0,38.0,-100.00,WNW,287,5.0,5.0,88,-99.99,,,0.31,0.000000,,2013-11-22 12:42:00,
2013-11-22 04:52:00,41.0,38.0,-100.00,WNW,287,5.0,5.0,88,-99.99,,,0.31,0.000000,,2013-11-22 12:52:00,
2013-11-22 05:00:00,40.0,38.0,-100.00,WNW,291,6.0,10.0,92,0.00,,,0.31,0.000000,,2013-11-22 13:00:00,
2013-11-22 05:42:00,40.0,38.0,-100.00,WNW,291,6.0,10.0,92,0.00,,,0.31,0.000000,,2013-11-22 13:42:00,
2013-11-22 05:52:00,40.0,38.0,-100.00,WNW,291,6.0,10.0,92,0.00,,,0.31,0.000000,,2013-11-22 13:52:00,
2013-11-22 06:00:00,40.0,36.0,-100.00,WNW,283,7.0,11.0,86,0.00,,,0.26,0.000000,,2013-11-22 14:00:00,
2013-11-22 06:42:00,40.0,36.0,-100.00,WNW,283,7.0,11.0,86,0.00,,,0.26,0.000000,,2013-11-22 14:42:00,
2013-11-22 06:52:00,40.0,36.0,-100.00,WNW,283,7.0,11.0,86,0.00,,,0.26,0.000000,,2013-11-22 14:52:00,
2013-11-22 07:00:00,39.0,36.0,-100.00,WNW,291,7.0,10.0,90,-99.99,,,0.23,0.000000,,2013-11-22 15:00:00,
2013-11-22 07:54:00,39.0,36.0,-100.00,WNW,291,7.0,10.0,90,-99.99,,,0.23,0.000000,,2013-11-22 15:54:00,
2013-11-22 08:00:00,39.0,34.0,-100.00,WNW,296,6.0,12.0,83,-99.99,,,0.22,0.000000,,2013-11-22 16:00:00,
2013-11-22 08:53:00,39.0,34.0,-100.00,WNW,296,6.0,12.0,83,-99.99,,,0.22,0.000000,,2013-11-22 16:53:00,
2013-11-22 09:00:00,41.0,33.0,-100.00,North,356,0.0,9.0,73,-99.99,,,0.20,17.000000,,2013-11-22 17:00:00,
2013-11-22 09:42:00,41.0,33.0,-100.00,North,356,0.0,9.0,73,-99.99,,,0.20,17.000000,,2013-11-22 17:42:00,
2013-11-22 09:52:00,41.0,33.0,-100.00,North,356,0.0,9.0,73,-99.99,,,0.20,17.000000,,2013-11-22 17:52:00,
2013-11-22 10:22:00,41.0,30.0,-100.00,NW,310,2.0,5.0,65,0.00,,,0.20,112.000000,,2013-11-22 18:22:00,
2013-11-22 10:33:00,41.0,30.0,-100.00,NW,310,2.0,5.0,65,0.00,,,0.20,112.000000,,2013-11-22 18:33:00,
2013-11-22 11:00:00,43.0,29.0,-100.00,NW,307,1.0,7.0,57,-99.99,,,0.19,196.000000,,2013-11-22 19:00:00,
2013-11-22 11:42:00,43.0,29.0,-100.00,NW,307,1.0,7.0,57,-99.99,,,0.19,196.000000,,2013-11-22 19:42:00,
2013-11-22 11:52:00,43.0,29.0,-100.00,NW,307,1.0,7.0,57,-99.99,,,0.19,196.000000,,2013-11-22 19:52:00,
2013-11-22 12:00:00,44.0,32.0,-100.00,WNW,290,5.0,8.0,63,0.00,,,-99.99,157.000000,,2013-11-22 20:00:00,
2013-11-22 12:22:00,44.0,32.0,-100.00,WNW,290,5.0,8.0,63,0.00,,,-99.99,157.000000,,2013-11-22 20:22:00,
2013-11-22 12:32:00,44.0,32.0,-100.00,WNW,290,5.0,8.0,63,0.00,,,-99.99,157.000000,,2013-11-22 20:32:00,
2013-11-22 12:42:00,44.0,32.0,-100.00,WNW,290,5.0,8.0,63,0.00,,,-99.99,157.000000,,2013-11-22 20:42:00,
2013-11-22 12:52:00,44.0,32.0,-100.00,WNW,290,5.0,8.0,63,0.00,,,-99.99,157.000000,,2013-11-22 20:52:00,
2013-11-22 13:00:00,43.0,35.0,-100.00,WSW,258,3.0,9.0,72,0.00,,,0.19,190.000000,,2013-11-22 21:00:00,
2013-11-22 13:22:00,43.0,35.0,-100.00,WSW,258,3.0,9.0,72,0.00,,,0.19,190.000000,,2013-11-22 21:22:00,
2013-11-22 13:33:00,43.0,35.0,-100.00,WSW,258,3.0,9.0,72,0.00,,,0.19,190.000000,,2013-11-22 21:33:00,
2013-11-22 13:43:00,43.0,35.0,-100.00,WSW,258,3.0,9.0,72,0.00,,,0.19,190.000000,,2013-11-22 21:43:00,
2013-11-22 13:53:00,43.0,35.0,-100.00,WSW,258,3.0,9.0,72,0.00,,,0.19,190.000000,,2013-11-22 21:53:00,
2013-11-22 14:00:00,45.0,34.0,-100.00,ESE,108,2.0,6.0,66,-99.99,,,0.19,269.000000,,2013-11-22 22:00:00,
2013-11-22 14:23:00,45.0,34.0,-100.00,ESE,108,2.0,6.0,66,-99.99,,,0.19,269.000000,,2013-11-22 22:23:00,
2013-11-22 14:33:00,45.0,34.0,-100.00,ESE,108,2.0,6.0,66,-99.99,,,0.19,269.000000,,2013-11-22 22:33:00,
2013-11-22 14:42:00,45.0,34.0,-100.00,ESE,108,2.0,6.0,66,-99.99,,,0.19,269.000000,,2013-11-22 22:42:00,
2013-11-22 14:53:00,45.0,34.0,-100.00,ESE,108,2.0,6.0,66,-99.99,,,0.19,269.000000,,2013-11-22 22:53:00,
2013-11-22 15:00:00,45.0,34.0,-100.00,SE,134,2.0,10.0,64,0.00,,,0.19,225.000000,,2013-11-22 23:00:00,
2013-11-22 15:22:00,45.0,34.0,-100.00,SE,134,2.0,10.0,64,0.00,,,0.19,225.000000,,2013-11-22 23:22:00,
2013-11-22 15:33:00,45.0,34.0,-100.00,SE,134,2.0,10.0,64,0.00,,,0.19,225.000000,,2013-11-22 23:33:00,
2013-11-22 15:42:00,45.0,34.0,-100.00,SE,134,2.0,10.0,64,0.00,,,0.19,225.000000,,2013-11-22 23:42:00,
2013-11-22 15:53:00,45.0,34.0,-100.00,SE,134,2.0,10.0,64,0.00,,,0.19,225.000000,,2013-11-22 23:53:00,
2013-11-22 16:00:00,45.0,32.0,-100.00,SE,139,0.0,5.0,60,0.00,,,0.19,167.000000,,2013-11-23 00:00:00,
2013-11-22 16:22:00,45.0,32.0,-100.00,SE,139,0.0,5.0,60,0.00,,,0.19,167.000000,,2013-11-23 00:22:00,
2013-11-22 16:32:00,45.0,32.0,-100.00,SE,139,0.0,5.0,60,0.00,,,0.19,167.000000,,2013-11-23 00:32:00,
2013-11-22 16:42:00,45.0,32.0,-100.00,SE,139,0.0,5.0,60,0.00,,,0.19,167.000000,,2013-11-23 00:42:00,
2013-11-22 16:52:00,45.0,32.0,-100.00,SE,139,0.0,5.0,60,0.00,,,0.19,167.000000,,2013-11-23 00:52:00,
2013-11-22 17:00:00,44.0,32.0,-100.00,SE,134,0.0,5.0,62,0.00,,,0.19,76.000000,,2013-11-23 01:00:00,
2013-11-22 17:22:00,44.0,32.0,-100.00,SE,134,0.0,5.0,62,0.00,,,0.19,76.000000,,2013-11-23 01:22:00,
2013-11-22 17:32:00,44.0,32.0,-100.00,SE,134,0.0,5.0,62,0.00,,,0.19,76.000000,,2013-11-23 01:32:00,
2013-11-22 17:42:00,44.0,32.0,-100.00,SE,134,0.0,5.0,62,0.00,,,0.19,76.000000,,2013-11-23 01:42:00,
2013-11-22 17:52:00,44.0,32.0,-100.00,SE,134,0.0,5.0,62,0.00,,,0.19,76.000000,,2013-11-23 01:52:00,
2013-11-22 18:00:00,41.0,33.0,-100.00,WNW,282,0.0,3.0,73,0.00,,,0.17,23.000000,,2013-11-23 02:00:00,
2013-11-22 18:53:00,41.0,33.0,-100.00,WNW,282,0.0,3.0,73,0.00,,,0.17,23.000000,,2013-11-23 02:53:00,
2013-11-22 22:00:00,42.0,33.0,-100.00,WNW,288,1.0,7.0,69,-99.99,,,0.00,0.000000,,2013-11-23 06:00:00,
2013-11-22 22:22:00,42.0,33.0,-100.00,WNW,288,1.0,7.0,69,-99.99,,,0.00,0.000000,,2013-11-23 06:22:00,
2013-11-22 22:32:00,42.0,33.0,-100.00,WNW,288,1.0,7.0,69,-99.99,,,0.00,0.000000,,2013-11-23 06:32:00,
2013-11-22 22:42:00,42.0,33.0,-100.00,WNW,288,1.0,7.0,69,-99.99,,,0.00,0.000000,,2013-11-23 06:42:00,
2013-11-22 22:52:00,42.0,33.0,-100.00,WNW,288,1.0,7.0,69,-99.99,,,0.00,0.000000,,2013-11-23 06:52:00,